createdAt,value
2017-12-23T00:00:22.342Z,27.57
2017-12-23T00:02:50.059Z,29.30
2017-12-23T00:05:17.862Z,28.20
2017-12-23T00:07:45.567Z,27.87
2017-12-23T00:10:13.274Z,28.30
2017-12-23T00:12:40.973Z,29.40
2017-12-23T00:15:08.688Z,28.90
2017-12-23T00:17:36.435Z,27.03
2017-12-23T00:20:04.121Z,29.43
2017-12-23T00:22:31.810Z,28.43
2017-12-23T00:25:00.277Z,29.50
2017-12-23T00:27:28.004Z,28.80
2017-12-23T00:29:55.613Z,28.37
2017-12-23T00:32:24.141Z,28.33
2017-12-23T00:34:51.879Z,27.77
2017-12-23T00:37:19.507Z,29.63
2017-12-23T00:39:47.181Z,29.20
2017-12-23T00:42:14.879Z,28.30
2017-12-23T00:44:42.584Z,28.37
2017-12-23T00:47:10.240Z,28.77
2017-12-23T00:49:37.883Z,29.37
2017-12-23T00:52:05.588Z,29.73
2017-12-23T00:54:33.292Z,27.77
2017-12-23T00:57:01.030Z,24.93
2017-12-23T00:59:28.748Z,27.93
2017-12-23T01:01:56.404Z,27.97
2017-12-23T01:04:24.125Z,28.10
2017-12-23T01:06:51.802Z,29.33
2017-12-23T01:09:20.286Z,26.87
2017-12-23T01:11:48.736Z,30.20
2017-12-23T01:14:16.433Z,27.00
2017-12-23T01:16:44.912Z,28.70
2017-12-23T01:19:13.360Z,31.27
2017-12-23T01:21:41.047Z,31.03
2017-12-23T01:24:08.778Z,32.27
2017-12-23T01:26:36.469Z,31.43
2017-12-23T01:29:04.158Z,29.73
2017-12-23T01:31:31.870Z,30.23
2017-12-23T01:34:05.123Z,29.03
2017-12-23T01:36:32.875Z,30.17
2017-12-23T01:39:00.571Z,30.73
2017-12-23T01:41:28.288Z,32.03
2017-12-23T01:43:56.034Z,29.30
2017-12-23T01:46:24.490Z,29.37
2017-12-23T01:48:52.179Z,31.37
2017-12-23T01:51:19.886Z,27.93
2017-12-23T01:53:47.626Z,30.13
2017-12-23T01:56:15.343Z,33.07
2017-12-23T01:58:43.055Z,32.03
2017-12-23T02:01:10.773Z,30.03
2017-12-23T02:03:38.556Z,32.93
2017-12-23T02:06:06.297Z,33.40
2017-12-23T02:08:34.018Z,31.30
2017-12-23T02:11:01.721Z,33.60
2017-12-23T02:13:29.445Z,33.23
2017-12-23T02:15:57.073Z,34.20
2017-12-23T02:18:24.718Z,34.20
2017-12-23T02:20:52.693Z,37.33
2017-12-23T02:23:20.341Z,38.40
2017-12-23T02:25:52.199Z,40.47
2017-12-23T02:28:20.704Z,40.77
2017-12-23T02:30:48.425Z,39.63
2017-12-23T02:33:16.137Z,40.47
2017-12-23T02:35:43.825Z,41.30
2017-12-23T02:38:11.532Z,40.63
2017-12-23T02:40:40.009Z,42.40
2017-12-23T02:43:07.742Z,43.47
2017-12-23T02:45:35.443Z,42.77
2017-12-23T02:48:03.935Z,42.93
2017-12-23T02:50:31.629Z,44.27
2017-12-23T02:52:59.324Z,44.57
2017-12-23T02:55:27.226Z,42.87
2017-12-23T02:57:54.832Z,42.60
2017-12-23T03:00:22.547Z,42.80
2017-12-23T03:02:51.034Z,41.93
2017-12-23T03:05:19.492Z,44.07
2017-12-23T03:07:47.521Z,41.30
2017-12-23T03:10:15.208Z,40.70
2017-12-23T03:12:42.892Z,41.77
2017-12-23T03:15:10.615Z,43.30
2017-12-23T03:17:38.319Z,40.33
2017-12-23T03:20:06.005Z,43.50
2017-12-23T03:22:34.487Z,42.10
2017-12-23T03:25:03.099Z,41.27
2017-12-23T03:27:30.813Z,42.00
2017-12-23T03:29:58.466Z,43.00
2017-12-23T03:32:26.102Z,41.23
2017-12-23T03:34:53.742Z,42.20
2017-12-23T03:37:21.387Z,39.47
2017-12-23T03:39:49.068Z,40.23
2017-12-23T03:42:16.741Z,36.60
2017-12-23T03:44:44.482Z,40.17
2017-12-23T03:47:12.484Z,40.47
2017-12-23T03:49:40.146Z,38.63
2017-12-23T03:52:07.872Z,34.73
2017-12-23T03:54:43.271Z,33.17
2017-12-23T03:57:10.970Z,28.73
2017-12-23T03:59:38.722Z,26.70
2017-12-23T04:02:06.412Z,22.17
2017-12-23T04:04:34.172Z,25.20
2017-12-23T04:07:01.848Z,24.07
2017-12-23T04:09:30.329Z,24.60
2017-12-23T04:11:58.030Z,21.57
2017-12-23T04:14:37.684Z,23.20
2017-12-23T04:17:05.328Z,22.13
2017-12-23T04:19:33.033Z,21.07
2017-12-23T04:22:00.714Z,22.47
2017-12-23T04:24:36.494Z,21.20
2017-12-23T04:27:04.188Z,16.00
2017-12-23T04:29:31.943Z,22.50
2017-12-23T04:31:59.641Z,17.93
2017-12-23T04:34:27.356Z,17.93
2017-12-23T04:36:55.072Z,20.93
2017-12-23T04:39:22.781Z,16.50
2017-12-23T04:41:50.376Z,19.73
2017-12-23T04:44:17.967Z,18.53
2017-12-23T04:46:46.373Z,12.67
2017-12-23T04:49:13.968Z,14.23
2017-12-23T04:51:42.348Z,16.83
2017-12-23T04:54:20.476Z,18.47
2017-12-23T04:56:48.089Z,17.13
2017-12-23T04:59:15.800Z,17.17
2017-12-23T05:01:43.521Z,16.37
2017-12-23T05:04:11.229Z,15.90
2017-12-23T05:06:38.844Z,13.00
2017-12-23T05:09:06.807Z,12.77
2017-12-23T05:11:34.482Z,12.07
2017-12-23T05:14:02.081Z,12.20
2017-12-23T05:16:29.681Z,12.80
2017-12-23T05:18:58.100Z,12.80
2017-12-23T05:21:25.777Z,11.77
2017-12-23T05:23:56.698Z,11.03
2017-12-23T05:26:24.351Z,8.43
2017-12-23T05:28:52.058Z,11.70
2017-12-23T05:31:19.766Z,11.80
2017-12-23T05:33:47.384Z,10.20
2017-12-23T05:36:15.085Z,8.47
2017-12-23T05:38:42.805Z,10.23
2017-12-23T05:41:11.044Z,9.30
2017-12-23T05:43:38.665Z,10.43
2017-12-23T05:46:06.374Z,9.17
2017-12-23T05:48:34.104Z,8.37
2017-12-23T05:51:01.805Z,9.20
2017-12-23T05:53:29.509Z,9.83
2017-12-23T05:55:57.202Z,10.03
2017-12-23T05:58:24.860Z,11.23
2017-12-23T06:00:53.323Z,11.00
2017-12-23T06:03:21.065Z,9.13
2017-12-23T06:05:48.770Z,8.70
2017-12-23T06:08:16.999Z,11.13
2017-12-23T06:10:45.777Z,8.90
2017-12-23T06:13:13.406Z,10.70
2017-12-23T06:15:41.239Z,8.73
2017-12-23T06:18:08.958Z,10.23
2017-12-23T06:20:36.670Z,10.30
2017-12-23T06:23:04.392Z,8.70
2017-12-23T06:25:32.040Z,9.13
2017-12-23T06:28:00.132Z,7.00
2017-12-23T06:30:28.312Z,8.23
2017-12-23T06:32:55.913Z,7.83
2017-12-23T06:35:24.345Z,6.60
2017-12-23T06:37:52.102Z,9.23
2017-12-23T06:40:19.766Z,9.17
2017-12-23T06:42:47.485Z,7.33
2017-12-23T06:45:20.594Z,7.77
2017-12-23T06:47:49.077Z,9.47
2017-12-23T06:50:16.781Z,10.60
2017-12-23T06:52:44.476Z,9.43
2017-12-23T06:55:12.172Z,10.50
2017-12-23T06:57:40.619Z,9.33
2017-12-23T07:00:08.294Z,9.77
2017-12-23T07:02:36.003Z,9.83
2017-12-23T07:05:03.775Z,9.80
2017-12-23T07:07:31.470Z,8.07
2017-12-23T07:09:59.148Z,10.43
2017-12-23T07:12:26.871Z,10.03
2017-12-23T07:14:54.786Z,9.03
2017-12-23T07:17:22.510Z,10.83
2017-12-23T07:19:50.110Z,9.57
2017-12-23T07:22:18.105Z,11.00
2017-12-23T07:24:45.880Z,12.23
2017-12-23T07:27:13.560Z,10.10
2017-12-23T07:29:41.241Z,10.33
2017-12-23T07:32:08.937Z,10.77
2017-12-23T07:34:36.652Z,12.20
2017-12-23T07:37:04.337Z,12.70
2017-12-23T07:39:32.061Z,11.57
2017-12-23T07:41:59.750Z,12.57
2017-12-23T07:44:28.552Z,13.53
2017-12-23T07:46:56.277Z,12.00
2017-12-23T07:49:23.918Z,13.07
2017-12-23T07:51:51.619Z,13.47
2017-12-23T07:54:19.237Z,11.50
2017-12-23T07:56:46.893Z,15.50
2017-12-23T07:59:14.609Z,15.03
2017-12-23T08:01:42.212Z,15.80
2017-12-23T08:04:09.904Z,15.20
2017-12-23T08:06:37.587Z,14.13
2017-12-23T08:09:05.226Z,16.23
2017-12-23T08:11:33.588Z,15.07
2017-12-23T08:14:09.379Z,17.60
2017-12-23T08:16:37.093Z,17.47
2017-12-23T08:19:04.768Z,17.80
2017-12-23T08:21:32.447Z,15.13
2017-12-23T08:24:00.128Z,18.83
2017-12-23T08:26:28.615Z,19.17
2017-12-23T08:28:56.331Z,18.73
2017-12-23T08:31:23.950Z,19.07
2017-12-23T08:33:51.709Z,17.57
2017-12-23T08:36:20.309Z,21.60
2017-12-23T08:38:53.593Z,17.43
2017-12-23T08:41:21.233Z,21.70
2017-12-23T08:43:49.712Z,23.03
2017-12-23T08:46:17.466Z,18.40
2017-12-23T08:48:45.282Z,21.03
2017-12-23T08:51:12.987Z,18.27
2017-12-23T08:53:41.568Z,23.47
2017-12-23T08:56:09.694Z,18.60
2017-12-23T08:58:37.367Z,21.93
2017-12-23T09:01:04.971Z,18.03
2017-12-23T09:03:32.681Z,21.53
2017-12-23T09:06:00.412Z,19.17
2017-12-23T09:08:28.105Z,18.10
2017-12-23T09:10:55.842Z,19.07
2017-12-23T09:13:23.547Z,19.67
2017-12-23T09:15:52.129Z,19.20
2017-12-23T09:18:19.844Z,15.90
2017-12-23T09:20:47.553Z,12.33
2017-12-23T09:23:15.277Z,18.87
2017-12-23T09:25:46.330Z,18.03
2017-12-23T09:28:14.020Z,14.37
2017-12-23T09:30:41.691Z,12.27
2017-12-23T09:33:09.439Z,15.17
2017-12-23T09:35:37.177Z,16.37
2017-12-23T09:38:04.897Z,18.10
2017-12-23T09:40:32.638Z,19.00
2017-12-23T09:43:00.254Z,17.70
2017-12-23T09:45:27.971Z,19.17
2017-12-23T09:47:55.698Z,21.93
2017-12-23T09:50:23.421Z,18.40
2017-12-23T09:52:51.028Z,17.00
2017-12-23T09:55:20.745Z,23.47
2017-12-23T09:57:48.453Z,22.17
2017-12-23T10:00:16.141Z,16.13
2017-12-23T10:02:43.817Z,28.27
2017-12-23T10:05:11.522Z,25.93
2017-12-23T10:07:39.235Z,20.50
2017-12-23T10:10:06.942Z,25.57
2017-12-23T10:12:35.432Z,28.03
2017-12-23T10:15:03.138Z,34.07
2017-12-23T10:17:30.829Z,37.50
2017-12-23T10:19:58.546Z,32.30
2017-12-23T10:22:26.319Z,38.87
2017-12-23T10:24:54.931Z,30.63
2017-12-23T10:27:22.650Z,37.93
2017-12-23T10:29:50.347Z,36.73
2017-12-23T10:32:18.040Z,40.37
2017-12-23T10:34:45.761Z,39.20
2017-12-23T10:37:13.451Z,45.37
2017-12-23T10:39:41.475Z,43.43
2017-12-23T10:42:14.741Z,34.43
2017-12-23T10:44:42.467Z,31.70
2017-12-23T10:47:10.186Z,29.40
2017-12-23T10:49:38.642Z,47.17
2017-12-23T10:52:06.363Z,37.03
2017-12-23T10:54:34.291Z,41.70
2017-12-23T10:57:07.747Z,35.83
2017-12-23T10:59:35.765Z,46.53
2017-12-23T11:02:04.215Z,40.57
2017-12-23T11:04:31.926Z,38.40
2017-12-23T11:06:59.640Z,30.50
2017-12-23T11:09:27.357Z,44.97
2017-12-23T11:11:55.047Z,35.10
2017-12-23T11:14:23.959Z,35.20
2017-12-23T11:16:51.676Z,34.67
2017-12-23T11:19:19.382Z,35.53
2017-12-23T11:21:47.091Z,37.07
2017-12-23T11:24:14.803Z,34.37
2017-12-23T11:26:42.526Z,32.97
2017-12-23T11:29:10.206Z,39.37
2017-12-23T11:31:37.918Z,37.50
2017-12-23T11:34:05.616Z,47.67
2017-12-23T11:36:33.301Z,39.53
2017-12-23T11:39:01.031Z,33.07
2017-12-23T11:41:28.742Z,42.70
2017-12-23T11:43:56.561Z,37.13
2017-12-23T11:46:24.268Z,36.53
2017-12-23T11:48:51.911Z,40.57
2017-12-23T11:51:19.602Z,34.50
2017-12-23T11:53:47.288Z,36.33
2017-12-23T11:56:15.697Z,40.67
2017-12-23T11:58:50.184Z,42.97
2017-12-23T12:01:18.215Z,43.67
2017-12-23T12:03:45.898Z,33.67
2017-12-23T12:06:13.791Z,36.73
2017-12-23T12:08:43.425Z,38.30
2017-12-23T12:11:16.653Z,36.07
2017-12-23T12:13:45.408Z,29.97
2017-12-23T12:16:13.792Z,32.37
2017-12-23T12:18:45.177Z,23.40
2017-12-23T12:21:16.490Z,24.20
2017-12-23T12:23:44.347Z,24.17
2017-12-23T12:26:12.034Z,35.87
2017-12-23T12:28:40.496Z,32.77
2017-12-23T12:31:13.865Z,27.83
2017-12-23T12:33:42.872Z,27.57
2017-12-23T12:36:10.591Z,27.60
2017-12-23T12:38:38.292Z,28.30
2017-12-23T12:41:05.931Z,25.03
2017-12-23T12:43:33.610Z,24.20
2017-12-23T12:46:01.344Z,24.57
2017-12-23T12:48:29.059Z,25.00
2017-12-23T12:50:56.782Z,22.13
2017-12-23T12:53:24.501Z,24.57
2017-12-23T12:55:52.275Z,27.97
2017-12-23T12:58:20.697Z,28.60
2017-12-23T13:00:48.304Z,27.97
2017-12-23T13:03:16.006Z,19.50
2017-12-23T13:05:43.666Z,26.87
2017-12-23T13:08:11.305Z,25.43
2017-12-23T13:10:38.946Z,24.63
2017-12-23T13:13:06.603Z,19.93
2017-12-23T13:15:35.437Z,23.00
2017-12-23T13:18:03.043Z,23.23
2017-12-23T13:20:30.717Z,20.60
2017-12-23T13:23:03.442Z,17.00
2017-12-23T13:25:36.896Z,21.43
2017-12-23T13:28:04.878Z,25.20
2017-12-23T13:30:32.587Z,20.03
2017-12-23T13:33:00.286Z,21.90
2017-12-23T13:35:28.021Z,15.63
2017-12-23T13:37:55.975Z,23.30
2017-12-23T13:40:23.689Z,25.23
2017-12-23T13:42:51.394Z,22.87
2017-12-23T13:45:23.439Z,23.70
2017-12-23T13:47:51.153Z,16.73
2017-12-23T13:50:18.858Z,21.30
2017-12-23T13:52:46.570Z,22.87
2017-12-23T13:55:14.289Z,24.43
2017-12-23T13:57:41.981Z,21.47
2017-12-23T14:00:09.742Z,24.20
2017-12-23T14:02:37.428Z,20.50
2017-12-23T14:05:05.927Z,17.27
2017-12-23T14:07:39.034Z,23.27
2017-12-23T14:10:07.141Z,21.40
2017-12-23T14:12:34.825Z,22.10
2017-12-23T14:15:07.397Z,24.93
2017-12-23T14:17:35.081Z,22.40
2017-12-23T14:20:02.829Z,22.23
2017-12-23T14:22:36.494Z,24.30
2017-12-23T14:25:04.590Z,19.87
2017-12-23T14:27:32.306Z,20.60
2017-12-23T14:30:00.037Z,22.67
2017-12-23T14:32:28.519Z,19.90
2017-12-23T14:34:56.472Z,17.37
2017-12-23T14:37:24.080Z,18.17
2017-12-23T14:39:51.681Z,16.33
2017-12-23T14:42:19.389Z,19.13
2017-12-23T14:45:01.965Z,24.10
2017-12-23T14:47:29.635Z,23.07
2017-12-23T14:49:57.938Z,23.50
2017-12-23T14:52:25.653Z,17.70
2017-12-23T14:54:53.355Z,21.23
2017-12-23T14:57:26.535Z,24.37
2017-12-23T14:59:54.621Z,23.70
2017-12-23T15:02:22.340Z,24.27
2017-12-23T15:04:49.948Z,21.27
2017-12-23T15:07:18.406Z,22.13
2017-12-23T15:09:46.229Z,21.27
2017-12-23T15:12:14.159Z,24.60
2017-12-23T15:14:43.866Z,23.77
2017-12-23T15:17:11.553Z,18.40
2017-12-23T15:19:40.013Z,18.37
2017-12-23T15:22:13.911Z,19.33
2017-12-23T15:24:41.977Z,22.97
2017-12-23T15:27:09.686Z,24.47
2017-12-23T15:29:37.953Z,22.90
2017-12-23T15:32:06.424Z,19.13
2017-12-23T15:34:38.952Z,15.30
2017-12-23T15:37:07.477Z,22.73
2017-12-23T15:39:35.157Z,19.00
2017-12-23T15:42:03.210Z,19.20
2017-12-23T15:44:30.878Z,19.53
2017-12-23T15:46:59.327Z,25.27
2017-12-23T15:49:26.993Z,21.60
2017-12-23T15:51:54.927Z,23.57
2017-12-23T15:54:23.391Z,23.13
2017-12-23T15:56:51.832Z,21.13
2017-12-23T15:59:19.551Z,27.00
2017-12-23T16:01:47.238Z,26.80
2017-12-23T16:04:23.315Z,27.33
2017-12-23T16:06:51.000Z,26.50
2017-12-23T16:09:18.712Z,26.33
2017-12-23T16:11:46.429Z,24.50
2017-12-23T16:14:14.197Z,20.70
2017-12-23T16:16:41.892Z,26.10
2017-12-23T16:19:09.590Z,24.17
2017-12-23T16:21:37.305Z,23.27
2017-12-23T16:24:10.002Z,19.67
2017-12-23T16:26:38.057Z,29.37
2017-12-23T16:29:05.760Z,24.87
2017-12-23T16:31:33.503Z,27.97
2017-12-23T16:34:02.155Z,29.57
2017-12-23T16:36:29.861Z,29.00
2017-12-23T16:38:57.626Z,24.50
2017-12-23T16:41:25.370Z,17.70
2017-12-23T16:43:53.841Z,24.07
2017-12-23T16:46:21.741Z,22.33
2017-12-23T16:48:49.540Z,22.77
2017-12-23T16:51:17.234Z,23.53
2017-12-23T16:53:46.200Z,15.10
2017-12-23T16:56:13.880Z,23.30
2017-12-23T16:58:41.655Z,23.77
2017-12-23T17:01:09.842Z,25.13
2017-12-23T17:03:37.556Z,21.87
2017-12-23T17:06:05.325Z,22.60
2017-12-23T17:08:33.058Z,26.50
2017-12-23T17:11:00.758Z,26.83
2017-12-23T17:13:28.393Z,22.47
2017-12-23T17:15:58.137Z,21.93
2017-12-23T17:18:25.842Z,22.07
2017-12-23T17:20:54.337Z,21.23
2017-12-23T17:23:22.034Z,29.87
2017-12-23T17:25:50.009Z,29.80
2017-12-23T17:28:17.634Z,26.53
2017-12-23T17:30:45.354Z,30.40
2017-12-23T17:33:13.129Z,27.23
2017-12-23T17:35:40.818Z,30.57
2017-12-23T17:38:09.180Z,30.97
2017-12-23T17:40:36.881Z,29.20
2017-12-23T17:43:04.562Z,31.10
2017-12-23T17:45:32.263Z,30.87
2017-12-23T17:47:59.986Z,32.40
2017-12-23T17:50:27.701Z,34.50
2017-12-23T17:52:55.389Z,31.37
2017-12-23T17:55:23.103Z,35.93
2017-12-23T17:57:50.824Z,35.30
2017-12-23T18:00:18.510Z,35.20
2017-12-23T18:02:46.204Z,30.40
2017-12-23T18:05:14.083Z,33.30
2017-12-23T18:07:41.776Z,36.97
2017-12-23T18:10:10.253Z,34.77
2017-12-23T18:12:38.699Z,36.33
2017-12-23T18:15:06.389Z,32.13
2017-12-23T18:17:34.859Z,34.83
2017-12-23T18:20:02.559Z,30.43
2017-12-23T18:22:30.293Z,30.23
2017-12-23T18:24:58.023Z,32.27
2017-12-23T18:27:25.730Z,34.57
2017-12-23T18:29:54.188Z,29.80
2017-12-23T18:32:21.895Z,31.70
2017-12-23T18:34:49.739Z,31.60
2017-12-23T18:37:18.193Z,31.53
2017-12-23T18:39:45.906Z,28.33
2017-12-23T18:42:14.013Z,31.07
2017-12-23T18:44:41.751Z,31.07
2017-12-23T18:47:09.452Z,30.57
2017-12-23T18:49:37.193Z,23.47
2017-12-23T18:52:05.109Z,29.33
2017-12-23T18:54:32.786Z,20.97
2017-12-23T18:57:01.242Z,22.73
2017-12-23T18:59:28.951Z,28.20
2017-12-23T19:01:56.688Z,27.03
2017-12-23T19:04:24.476Z,22.60
2017-12-23T19:06:52.207Z,22.37
2017-12-23T19:09:19.904Z,20.13
2017-12-23T19:11:48.340Z,26.10
2017-12-23T19:14:16.068Z,28.93
2017-12-23T19:16:52.701Z,26.90
2017-12-23T19:19:21.076Z,19.90
2017-12-23T19:21:48.833Z,21.80
2017-12-23T19:24:16.594Z,27.23
2017-12-23T19:26:44.285Z,27.83
2017-12-23T19:29:12.014Z,25.07
2017-12-23T19:31:39.736Z,24.83
2017-12-23T19:34:08.336Z,21.00
2017-12-23T19:36:36.079Z,19.20
2017-12-23T19:39:03.850Z,28.40
2017-12-23T19:41:31.617Z,25.93
2017-12-23T19:43:59.465Z,22.07
2017-12-23T19:46:27.136Z,22.50
2017-12-23T19:48:55.609Z,20.00
2017-12-23T19:51:23.340Z,27.10
2017-12-23T19:53:51.022Z,27.63
2017-12-23T19:56:18.711Z,25.10
2017-12-23T19:58:47.094Z,26.13
2017-12-23T20:01:14.874Z,17.83
2017-12-23T20:03:42.763Z,27.57
2017-12-23T20:06:10.498Z,28.43
2017-12-23T20:08:38.219Z,26.27
2017-12-23T20:11:05.909Z,30.63
2017-12-23T20:13:33.649Z,25.57
2017-12-23T20:16:01.634Z,30.43
2017-12-23T20:18:29.328Z,24.37
2017-12-23T20:20:57.078Z,28.00
2017-12-23T20:23:25.544Z,30.10
2017-12-23T20:25:53.296Z,25.53
2017-12-23T20:28:21.018Z,27.37
2017-12-23T20:30:48.724Z,22.33
2017-12-23T20:33:16.472Z,26.87
2017-12-23T20:35:44.170Z,27.87
2017-12-23T20:38:12.046Z,26.60
2017-12-23T20:40:40.570Z,27.73
2017-12-23T20:43:08.278Z,21.27
2017-12-23T20:45:35.958Z,24.30
2017-12-23T20:48:04.947Z,26.07
2017-12-23T20:50:33.407Z,20.53
2017-12-23T20:53:01.221Z,26.13
2017-12-23T20:55:41.755Z,26.23
2017-12-23T20:58:09.456Z,28.03
2017-12-23T21:00:37.163Z,19.83
2017-12-23T21:03:04.853Z,22.30
2017-12-23T21:05:32.552Z,27.60
2017-12-23T21:08:00.398Z,24.33
2017-12-23T21:10:28.852Z,23.07
2017-12-23T21:12:56.534Z,28.07
2017-12-23T21:15:24.261Z,25.60
2017-12-23T21:17:52.378Z,27.17
2017-12-23T21:20:20.094Z,22.50
2017-12-23T21:22:47.779Z,25.17
2017-12-23T21:25:15.664Z,24.83
2017-12-23T21:27:43.378Z,23.97
2017-12-23T21:30:11.103Z,23.73
2017-12-23T21:32:39.609Z,22.80
2017-12-23T21:35:07.337Z,13.87
2017-12-23T21:37:35.013Z,25.00
2017-12-23T21:40:03.490Z,19.60
2017-12-23T21:42:31.211Z,25.97
2017-12-23T21:44:58.924Z,24.03
2017-12-23T21:47:27.376Z,21.40
2017-12-23T21:49:55.084Z,23.13
2017-12-23T21:52:22.740Z,25.73
2017-12-23T21:54:50.682Z,26.00
2017-12-23T21:57:18.387Z,25.33
2017-12-23T21:59:46.090Z,20.40
2017-12-23T22:02:14.334Z,21.00
2017-12-23T22:04:42.263Z,23.17
2017-12-23T22:07:10.741Z,22.67
2017-12-23T22:09:38.601Z,24.63
2017-12-23T22:12:06.286Z,28.63
2017-12-23T22:14:33.899Z,28.63
2017-12-23T22:17:01.603Z,25.27
2017-12-23T22:19:29.301Z,29.23
2017-12-23T22:21:57.004Z,22.07
2017-12-23T22:24:24.792Z,30.83
2017-12-23T22:26:52.519Z,29.80
2017-12-23T22:29:20.253Z,28.53
2017-12-23T22:31:47.931Z,29.33
2017-12-23T22:34:15.615Z,23.17
2017-12-23T22:36:43.305Z,26.57
2017-12-23T22:39:11.004Z,25.07
2017-12-23T22:41:39.453Z,28.20
2017-12-23T22:44:07.154Z,25.07
2017-12-23T22:46:34.880Z,25.23
2017-12-23T22:49:02.565Z,24.37
2017-12-23T22:51:30.302Z,26.23
2017-12-23T22:53:59.196Z,26.87
2017-12-23T22:56:26.889Z,24.67
2017-12-23T22:58:55.303Z,27.30
2017-12-23T23:01:23.035Z,22.37
2017-12-23T23:03:51.463Z,25.77
2017-12-23T23:06:19.179Z,22.83
2017-12-23T23:08:47.672Z,25.13
2017-12-23T23:11:15.394Z,23.30
2017-12-23T23:13:43.104Z,20.70
2017-12-23T23:16:10.831Z,19.67
2017-12-23T23:18:38.539Z,26.53
2017-12-23T23:21:06.250Z,20.63
2017-12-23T23:23:33.979Z,22.20
2017-12-23T23:26:01.722Z,26.20
2017-12-23T23:28:29.464Z,19.00
2017-12-23T23:30:57.170Z,24.07
2017-12-23T23:33:24.870Z,20.13
2017-12-23T23:35:52.595Z,25.13
2017-12-23T23:38:21.288Z,22.17
2017-12-23T23:40:49.012Z,25.30
2017-12-23T23:43:16.711Z,26.37
2017-12-23T23:45:51.798Z,25.10
2017-12-23T23:48:19.524Z,23.60
2017-12-23T23:50:47.240Z,23.37
2017-12-23T23:53:15.682Z,20.80
2017-12-23T23:55:43.369Z,24.37
2017-12-23T23:58:11.091Z,26.03
